Time;durP1;ratioP1;P1;durP2;ratioP2;P2;SDS_P1;SDS_P2;PMS_P1;PMS_P2;Temp;Humidity;BMP_temperature;BMP_pressure;BME280_temperature;BME280_humidity;BME280_pressure;Samples;Min_cycle;Max_cycle;Signal;HPM_P1;HPM_P2
2022/01/29 00:00:51;;;;;;;24.10;2.67;;;4.90;99.90;;;;;;4998988;28;20137;-84
2022/01/29 00:03:18;;;;;;;9.65;2.10;;;4.90;99.90;;;;;;4979964;28;20015;-83
2022/01/29 00:05:44;;;;;;;16.85;2.55;;;4.90;99.90;;;;;;4982448;28;20055;-83
2022/01/29 00:08:09;;;;;;;14.98;2.28;;;4.90;99.90;;;;;;4993190;28;20125;-87
2022/01/29 00:10:35;;;;;;;12.32;2.15;;;4.90;99.90;;;;;;4962521;28;20066;-84
2022/01/29 00:13:03;;;;;;;18.05;2.72;;;4.90;99.90;;;;;;4982430;28;20046;-84
2022/01/29 00:15:29;;;;;;;12.52;2.50;;;4.90;99.90;;;;;;4977546;28;20487;-84
2022/01/29 00:17:54;;;;;;;14.98;2.50;;;4.90;99.90;;;;;;4962887;28;20037;-85
2022/01/29 00:20:20;;;;;;;16.77;2.40;;;4.90;99.90;;;;;;4981431;28;20035;-84
2022/01/29 00:22:46;;;;;;;9.25;2.22;;;4.90;99.90;;;;;;4981571;28;20102;-85
2022/01/29 00:25:12;;;;;;;21.88;2.63;;;4.80;99.90;;;;;;4983121;28;20027;-85
2022/01/29 00:27:39;;;;;;;18.00;2.22;;;4.90;99.90;;;;;;4981278;28;20038;-85
2022/01/29 00:30:13;;;;;;;7.97;1.67;;;4.80;99.90;;;;;;4989696;28;20046;-83
2022/01/29 00:32:39;;;;;;;9.65;2.13;;;4.80;99.90;;;;;;4996243;28;20050;-85
2022/01/29 00:35:06;;;;;;;10.73;2.40;;;4.80;99.90;;;;;;4995431;28;20055;-86
2022/01/29 00:37:32;;;;;;;9.57;2.22;;;4.80;99.90;;;;;;4992681;28;20034;-86
2022/01/29 00:39:57;;;;;;;11.82;2.67;;;4.70;99.90;;;;;;4975535;28;20042;-83
2022/01/29 00:42:23;;;;;;;13.30;2.55;;;4.70;99.90;;;;;;4996791;28;20023;-84
2022/01/29 00:44:50;;;;;;;12.82;2.70;;;4.70;99.90;;;;;;5002418;28;20015;-86
2022/01/29 00:47:16;;;;;;;13.30;2.00;;;4.70;99.90;;;;;;5002300;28;20035;-85
2022/01/29 00:49:43;;;;;;;9.95;1.55;;;4.60;99.90;;;;;;5007949;28;20034;-86
2022/01/29 00:52:09;;;;;;;9.55;2.30;;;4.60;99.90;;;;;;4998952;28;20022;-85
2022/01/29 00:54:35;;;;;;;11.07;2.65;;;4.60;99.90;;;;;;4983755;28;20427;-85
2022/01/29 00:57:01;;;;;;;14.23;1.90;;;4.60;99.90;;;;;;5002044;28;20018;-83
2022/01/29 00:59:27;;;;;;;7.82;1.90;;;4.50;99.90;;;;;;5016097;28;20014;-84
2022/01/29 01:01:53;;;;;;;18.60;2.70;;;4.50;99.90;;;;;;5012403;28;20023;-84
2022/01/29 01:04:18;;;;;;;15.40;3.00;;;4.40;99.90;;;;;;5012267;28;20046;-85
2022/01/29 01:06:44;;;;;;;10.50;2.33;;;4.40;99.90;;;;;;5025818;23;20111;-89
2022/01/29 01:09:12;;;;;;;7.90;2.40;;;4.40;99.90;;;;;;4955249;28;20043;-90
2022/01/29 01:11:38;;;;;;;13.80;2.72;;;4.40;99.90;;;;;;4961168;28;20039;-89
2022/01/29 01:14:04;;;;;;;14.88;2.28;;;4.30;99.90;;;;;;4961498;28;20046;-90
2022/01/29 01:16:29;;;;;;;17.85;2.28;;;4.30;99.90;;;;;;4962009;28;20039;-90
2022/01/29 01:18:55;;;;;;;13.75;2.03;;;4.20;99.90;;;;;;4953809;28;20063;-91
2022/01/29 01:21:21;;;;;;;10.88;2.75;;;4.20;99.90;;;;;;4961640;28;20058;-91
2022/01/29 01:23:47;;;;;;;10.23;1.67;;;4.20;99.90;;;;;;4961122;28;20023;-89
2022/01/29 01:26:14;;;;;;;12.13;2.13;;;4.10;99.90;;;;;;4961308;28;20071;-89
2022/01/29 01:28:40;;;;;;;11.15;2.33;;;4.10;99.90;;;;;;4960496;28;20032;-88
2022/01/29 01:31:06;;;;;;;8.43;2.53;;;4.10;99.90;;;;;;4944686;28;20058;-89
2022/01/29 01:33:32;;;;;;;7.68;2.13;;;4.00;99.90;;;;;;4960705;28;20039;-91
2022/01/29 01:36:02;;;;;;;17.25;2.80;;;4.00;99.90;;;;;;4961087;28;20024;-90
2022/01/29 01:38:45;;;;;;;13.75;2.15;;;4.00;99.90;;;;;;4944424;29;20030;-88
2022/01/29 01:41:14;;;;;;;11.52;2.10;;;4.00;99.90;;;;;;4960439;28;20043;-90
2022/01/29 01:43:40;;;;;;;18.92;2.55;;;3.90;99.90;;;;;;4960553;28;20026;-89
2022/01/29 01:46:06;;;;;;;12.95;1.90;;;4.00;99.90;;;;;;4960985;28;20028;-89
2022/01/29 01:48:32;;;;;;;15.32;2.55;;;3.90;99.90;;;;;;4960796;28;20087;-90
2022/01/29 01:50:59;;;;;;;14.68;3.22;;;3.90;99.90;;;;;;4960535;28;20093;-89
2022/01/29 01:53:25;;;;;;;12.48;2.35;;;3.90;99.90;;;;;;4956889;28;20012;-89
2022/01/29 01:55:51;;;;;;;10.35;2.30;;;3.90;99.90;;;;;;4952351;28;20035;-88
2022/01/29 01:58:17;;;;;;;17.30;2.15;;;3.90;99.90;;;;;;4951880;28;20031;-84
2022/01/29 02:00:44;;;;;;;16.85;2.20;;;3.90;99.90;;;;;;4949811;28;20024;-83
2022/01/29 02:03:10;;;;;;;27.38;2.53;;;3.90;99.90;;;;;;4948507;28;20091;-82
2022/01/29 02:05:37;;;;;;;8.80;1.85;;;3.90;99.90;;;;;;4945961;29;20035;-87
2022/01/29 02:08:03;;;;;;;16.05;2.13;;;3.90;99.90;;;;;;4939910;29;20020;-84
2022/01/29 02:10:31;;;;;;;20.70;2.65;;;3.80;99.90;;;;;;4940789;29;20076;-84
2022/01/29 02:13:01;;;;;;;13.63;2.22;;;3.80;99.90;;;;;;4939410;29;20032;-87
2022/01/29 02:15:27;;;;;;;14.23;3.08;;;3.80;99.90;;;;;;4944900;29;20055;-88
2022/01/29 02:17:54;;;;;;;14.82;2.20;;;3.80;99.90;;;;;;4939605;29;20031;-88
2022/01/29 02:20:23;;;;;;;12.80;2.20;;;3.80;99.90;;;;;;4948142;29;20175;-85
2022/01/29 02:22:50;;;;;;;9.90;2.40;;;3.90;99.90;;;;;;4944732;29;20028;-85
2022/01/29 02:25:29;;;;;;;13.07;1.88;;;3.90;99.90;;;;;;4940416;29;20035;-86
2022/01/29 02:28:00;;;;;;;15.43;3.15;;;3.90;99.90;;;;;;4956557;29;20028;-85
2022/01/29 02:30:28;;;;;;;11.50;1.95;;;3.90;99.90;;;;;;4967917;28;20054;-86
2022/01/29 02:32:55;;;;;;;18.23;3.55;;;3.90;99.90;;;;;;4942350;29;20042;-87
2022/01/29 02:35:21;;;;;;;13.85;2.45;;;3.90;99.90;;;;;;4941399;29;20049;-86
2022/01/29 02:37:51;;;;;;;18.63;2.30;;;3.90;99.90;;;;;;4942281;29;20024;-87
2022/01/29 02:40:19;;;;;;;13.18;2.35;;;3.80;99.90;;;;;;4942656;29;20028;-84
2022/01/29 02:42:45;;;;;;;14.30;1.80;;;3.80;99.90;;;;;;4945622;29;20028;-84
2022/01/29 02:45:11;;;;;;;14.00;2.97;;;3.80;99.90;;;;;;4949446;29;20027;-84
2022/01/29 02:47:37;;;;;;;12.05;2.00;;;3.80;99.90;;;;;;4951207;29;20035;-87
2022/01/29 02:50:03;;;;;;;7.68;1.70;;;3.80;99.90;;;;;;4947690;29;20384;-86
2022/01/29 02:52:29;;;;;;;12.07;2.22;;;3.70;99.90;;;;;;4940918;29;20087;-86
2022/01/29 02:54:55;;;;;;;7.60;1.65;;;3.70;99.90;;;;;;4941987;29;20504;-87
2022/01/29 02:57:20;;;;;;;13.13;2.08;;;3.70;99.90;;;;;;4942373;29;20075;-89
2022/01/29 02:59:46;;;;;;;11.25;1.95;;;3.70;99.90;;;;;;4948396;29;20141;-86
2022/01/29 03:02:12;;;;;;;7.90;1.98;;;3.70;99.90;;;;;;4968083;29;20031;-87
2022/01/29 03:04:38;;;;;;;10.65;1.95;;;3.70;99.90;;;;;;4955682;29;20035;-87
2022/01/29 03:07:03;;;;;;;7.82;1.92;;;3.70;99.90;;;;;;4957371;29;20607;-87
2022/01/29 03:09:29;;;;;;;11.98;2.20;;;3.70;99.90;;;;;;4956641;29;20032;-87
2022/01/29 03:11:56;;;;;;;21.23;2.83;;;3.70;99.90;;;;;;4942820;29;20082;-87
2022/01/29 03:14:22;;;;;;;5.28;2.03;;;3.70;99.90;;;;;;4956876;29;20040;-87
2022/01/29 03:16:48;;;;;;;14.52;2.30;;;3.70;99.90;;;;;;4955681;29;20439;-88
2022/01/29 03:19:13;;;;;;;17.30;2.53;;;3.70;99.90;;;;;;4956504;29;20103;-87
2022/01/29 03:21:39;;;;;;;14.45;2.45;;;3.60;99.90;;;;;;4956596;29;20079;-88
2022/01/29 03:24:05;;;;;;;14.77;2.85;;;3.60;99.90;;;;;;4958384;29;20040;-88
2022/01/29 03:26:31;;;;;;;13.15;3.10;;;3.60;99.90;;;;;;4974512;29;20119;-88
2022/01/29 03:28:57;;;;;;;8.05;2.20;;;3.50;99.90;;;;;;4956311;29;20044;-87
2022/01/29 03:31:26;;;;;;;9.07;2.55;;;3.50;99.90;;;;;;4958254;29;20038;-89
2022/01/29 03:33:53;;;;;;;9.55;2.22;;;3.50;99.90;;;;;;4955532;29;20024;-87
2022/01/29 03:36:19;;;;;;;14.45;2.45;;;3.40;99.90;;;;;;4955781;29;20103;-87
2022/01/29 03:38:45;;;;;;;13.23;2.50;;;3.40;99.90;;;;;;4949276;29;20028;-87
2022/01/29 03:41:13;;;;;;;8.20;2.22;;;3.40;99.90;;;;;;4951198;29;20040;-88
2022/01/29 03:43:43;;;;;;;7.78;1.98;;;3.30;99.90;;;;;;4946278;29;20036;-87
2022/01/29 03:46:08;;;;;;;10.43;2.72;;;3.30;99.90;;;;;;4947667;29;20039;-87
2022/01/29 03:48:34;;;;;;;17.40;2.97;;;3.30;99.90;;;;;;4963514;29;20032;-90
2022/01/29 03:51:00;;;;;;;10.30;2.35;;;3.30;99.90;;;;;;4953299;29;20048;-87
2022/01/29 03:53:26;;;;;;;12.32;2.35;;;3.30;99.90;;;;;;4948803;29;20023;-88
2022/01/29 03:55:51;;;;;;;13.27;2.97;;;3.30;99.90;;;;;;4948775;29;20099;-89
2022/01/29 03:58:18;;;;;;;9.63;2.67;;;3.20;99.90;;;;;;4948888;29;20032;-87
2022/01/29 04:00:44;;;;;;;12.38;2.97;;;3.20;99.90;;;;;;4949841;29;20024;-89
2022/01/29 04:03:10;;;;;;;8.40;2.35;;;3.10;99.90;;;;;;4947529;29;20031;-88
2022/01/29 04:05:35;;;;;;;16.23;3.00;;;3.10;99.90;;;;;;4948404;29;20028;-89
2022/01/29 04:08:02;;;;;;;15.73;3.45;;;3.10;99.90;;;;;;4945959;29;20059;-88
2022/01/29 04:10:29;;;;;;;12.85;3.30;;;3.10;99.90;;;;;;4946135;29;20020;-91
2022/01/29 04:12:56;;;;;;;10.80;3.00;;;3.10;99.90;;;;;;4944368;29;20043;-88
2022/01/29 04:15:22;;;;;;;16.25;3.70;;;3.10;99.90;;;;;;4945813;29;20028;-88
2022/01/29 04:17:48;;;;;;;16.55;3.30;;;3.00;99.90;;;;;;4948643;29;20059;-88
2022/01/29 04:20:14;;;;;;;11.88;2.88;;;3.00;99.90;;;;;;4953371;29;20024;-88
2022/01/29 04:22:40;;;;;;;14.95;3.75;;;3.00;99.90;;;;;;4953974;29;20048;-89
2022/01/29 04:25:06;;;;;;;16.38;3.95;;;2.90;99.90;;;;;;4955383;29;20106;-88
2022/01/29 04:27:40;;;;;;;19.63;4.13;;;2.90;99.90;;;;;;4963345;28;20035;-88
2022/01/29 04:30:11;;;;;;;15.68;4.22;;;2.90;99.90;;;;;;4960636;29;20050;-89
2022/01/29 04:35:06;;;;;;;10.57;4.13;;;2.90;99.90;;;;;;4945976;29;20024;-88
2022/01/29 04:37:32;;;;;;;18.83;4.80;;;2.90;99.90;;;;;;4956014;29;20044;-87
2022/01/29 04:39:58;;;;;;;20.83;5.65;;;2.90;99.90;;;;;;4930243;29;20075;-87
2022/01/29 04:42:23;;;;;;;21.52;6.10;;;2.90;99.90;;;;;;4947692;29;20044;-88
2022/01/29 04:44:49;;;;;;;14.55;4.88;;;2.90;99.90;;;;;;4953234;28;20088;-88
2022/01/29 04:47:16;;;;;;;15.80;5.18;;;2.90;99.90;;;;;;4958934;28;20019;-85
2022/01/29 04:49:42;;;;;;;15.05;5.35;;;2.90;99.90;;;;;;4945050;29;20059;-89
2022/01/29 04:52:07;;;;;;;18.35;5.20;;;2.90;99.90;;;;;;4960881;29;20058;-88
2022/01/29 04:54:33;;;;;;;16.73;5.70;;;2.90;99.90;;;;;;4929792;29;20020;-88
2022/01/29 04:56:59;;;;;;;22.70;5.28;;;2.90;99.90;;;;;;4945688;29;20036;-87
2022/01/29 04:59:25;;;;;;;17.92;6.32;;;2.90;99.90;;;;;;4947434;29;20031;-88
2022/01/29 05:01:51;;;;;;;19.13;5.85;;;2.90;99.90;;;;;;4947489;29;20144;-88
2022/01/29 05:04:18;;;;;;;19.38;5.97;;;2.90;99.90;;;;;;4948513;29;20024;-88
2022/01/29 05:06:43;;;;;;;13.25;5.50;;;2.90;99.90;;;;;;4945891;29;20039;-86
2022/01/29 05:09:10;;;;;;;27.20;6.20;;;2.90;99.90;;;;;;4946088;29;20391;-86
2022/01/29 05:11:36;;;;;;;15.98;5.90;;;2.90;99.90;;;;;;4948739;29;20090;-88
2022/01/29 05:14:05;;;;;;;18.52;6.50;;;2.90;99.90;;;;;;4953225;29;20118;-86
2022/01/29 05:27:10;;;;;;;22.02;7.40;;;2.90;99.90;;;;;;4949457;29;20060;-86
2022/01/29 05:29:37;;;;;;;23.65;6.38;;;2.90;99.90;;;;;;4949722;29;20416;-86
2022/01/29 05:32:07;;;;;;;19.25;6.88;;;2.90;99.90;;;;;;4947124;29;20028;-86
2022/01/29 05:34:33;;;;;;;25.45;7.15;;;2.90;99.90;;;;;;4932007;29;20024;-87
2022/01/29 05:37:00;;;;;;;22.42;6.45;;;2.80;99.90;;;;;;4942561;29;20034;-88
2022/01/29 05:39:26;;;;;;;20.33;6.93;;;2.90;99.90;;;;;;4951955;29;20023;-86
2022/01/29 05:41:53;;;;;;;23.48;6.82;;;2.90;99.90;;;;;;4952352;28;20024;-84
2022/01/29 05:44:19;;;;;;;23.63;6.97;;;2.90;99.90;;;;;;4953605;29;20020;-86
2022/01/29 05:46:45;;;;;;;22.85;7.47;;;2.90;99.90;;;;;;4948108;29;20051;-88
2022/01/29 05:49:11;;;;;;;20.02;7.57;;;2.90;99.90;;;;;;4948386;29;20039;-89
2022/01/29 05:51:38;;;;;;;25.52;6.85;;;2.90;99.90;;;;;;4947846;29;20030;-89
2022/01/29 05:54:04;;;;;;;19.70;7.25;;;2.90;99.90;;;;;;4946303;29;20031;-87
2022/01/29 05:56:30;;;;;;;19.55;7.60;;;3.00;99.90;;;;;;4943615;29;20032;-88
2022/01/29 05:58:57;;;;;;;19.77;7.07;;;3.00;99.90;;;;;;4944127;29;20423;-88
2022/01/29 06:01:23;;;;;;;22.45;7.45;;;3.00;99.90;;;;;;4947632;29;20448;-87
2022/01/29 06:03:49;;;;;;;27.25;7.55;;;3.00;99.90;;;;;;4947181;29;20052;-85
2022/01/29 06:06:15;;;;;;;22.80;7.90;;;3.00;99.90;;;;;;4948930;29;20028;-87
2022/01/29 06:08:41;;;;;;;25.42;8.82;;;3.00;99.90;;;;;;4951407;29;20027;-86
2022/01/29 06:11:07;;;;;;;24.00;8.25;;;3.00;99.90;;;;;;4953726;29;20039;-85
2022/01/29 06:13:33;;;;;;;24.92;7.60;;;3.00;99.90;;;;;;4951667;29;20051;-86
2022/01/29 06:16:01;;;;;;;21.45;8.90;;;3.00;99.90;;;;;;4956848;29;20055;-84
2022/01/29 06:18:27;;;;;;;21.05;8.52;;;3.00;99.90;;;;;;4957538;29;20023;-85
2022/01/29 06:20:57;;;;;;;27.95;8.25;;;3.00;99.90;;;;;;4957699;28;20044;-85
2022/01/29 06:23:34;;;;;;;24.90;9.52;;;3.00;99.90;;;;;;4957446;28;20105;-87
2022/01/29 06:26:03;;;;;;;22.30;9.30;;;3.00;99.90;;;;;;4956012;29;20039;-86
2022/01/29 06:28:29;;;;;;;20.02;7.65;;;3.00;99.90;;;;;;4956862;29;20067;-85
2022/01/29 06:30:56;;;;;;;22.45;8.85;;;3.10;99.90;;;;;;4954404;29;20054;-88
2022/01/29 06:33:22;;;;;;;25.05;9.63;;;3.00;99.90;;;;;;4950998;29;20028;-87
2022/01/29 06:35:48;;;;;;;23.02;9.70;;;3.10;99.90;;;;;;4950262;29;20063;-88
2022/01/29 06:38:14;;;;;;;25.77;9.25;;;3.10;99.90;;;;;;4948537;29;20028;-86
2022/01/29 06:40:42;;;;;;;25.90;9.57;;;3.10;99.90;;;;;;4947761;29;20042;-88
2022/01/29 06:43:08;;;;;;;21.13;8.77;;;3.10;99.90;;;;;;4945142;29;20059;-86
2022/01/29 06:45:36;;;;;;;27.05;8.95;;;3.10;99.90;;;;;;4948964;29;20039;-87
2022/01/29 06:48:02;;;;;;;28.63;10.00;;;3.10;99.90;;;;;;4955785;29;20023;-85
2022/01/29 06:50:29;;;;;;;25.05;9.68;;;3.20;99.90;;;;;;4957768;29;20059;-88
2022/01/29 06:52:55;;;;;;;26.52;10.30;;;3.20;99.90;;;;;;4951933;29;20496;-86
2022/01/29 06:55:22;;;;;;;21.05;9.05;;;3.20;99.90;;;;;;4952448;29;20031;-87
2022/01/29 06:57:48;;;;;;;23.88;10.45;;;3.20;99.90;;;;;;4935167;29;20056;-87
2022/01/29 07:00:16;;;;;;;23.67;9.05;;;3.30;99.90;;;;;;4951024;29;20031;-86
2022/01/29 07:02:42;;;;;;;26.13;10.02;;;3.30;99.90;;;;;;4958940;28;20044;-84
2022/01/29 07:05:10;;;;;;;23.58;9.63;;;3.40;99.90;;;;;;4958161;29;20099;-87
2022/01/29 07:07:36;;;;;;;24.17;9.27;;;3.50;99.90;;;;;;4990858;23;20495;-84
2022/01/29 07:10:03;;;;;;;22.80;9.23;;;3.70;99.90;;;;;;4966673;29;20063;-84
2022/01/29 07:12:29;;;;;;;22.48;9.05;;;3.70;99.90;;;;;;4965963;29;20015;-85
2022/01/29 07:14:55;;;;;;;22.63;9.43;;;3.80;99.90;;;;;;4972838;29;20032;-85
2022/01/29 07:17:22;;;;;;;27.33;9.07;;;3.90;99.90;;;;;;4970588;29;20042;-84
2022/01/29 07:19:55;;;;;;;23.58;8.88;;;3.90;99.90;;;;;;4966722;29;20031;-84
2022/01/29 07:22:21;;;;;;;26.17;9.45;;;4.00;99.90;;;;;;4943394;29;20038;-84
2022/01/29 07:24:47;;;;;;;26.02;9.02;;;4.10;99.90;;;;;;4957842;28;20035;-85
2022/01/29 07:27:13;;;;;;;21.83;8.93;;;4.20;99.90;;;;;;4975298;28;20066;-84
2022/01/29 07:29:39;;;;;;;23.60;8.55;;;4.30;99.90;;;;;;4961486;29;20034;-85
2022/01/29 07:32:06;;;;;;;29.77;10.13;;;4.40;99.90;;;;;;4957953;29;20036;-84
2022/01/29 07:34:31;;;;;;;16.63;9.10;;;4.40;99.90;;;;;;4944033;29;20028;-84
2022/01/29 07:36:58;;;;;;;19.90;8.68;;;4.40;99.90;;;;;;4938612;29;20027;-83
2022/01/29 07:39:25;;;;;;;32.00;9.15;;;4.50;99.90;;;;;;4944915;29;20131;-84
2022/01/29 07:41:51;;;;;;;23.05;9.10;;;4.50;99.90;;;;;;4944354;29;20055;-85
2022/01/29 07:44:17;;;;;;;15.98;8.80;;;4.60;99.90;;;;;;4919088;29;20047;-83
2022/01/29 07:46:43;;;;;;;18.42;8.68;;;4.70;99.90;;;;;;4935470;29;20115;-83
2022/01/29 07:49:09;;;;;;;20.58;8.73;;;4.80;99.90;;;;;;4928188;29;20051;-85
2022/01/29 07:51:36;;;;;;;27.20;9.80;;;4.80;99.90;;;;;;4950259;29;20024;-84
2022/01/29 07:54:03;;;;;;;15.80;8.32;;;4.70;99.90;;;;;;4945195;29;20044;-84
2022/01/29 07:56:29;;;;;;;17.13;8.80;;;4.80;99.90;;;;;;4959076;28;20038;-84
2022/01/29 07:58:55;;;;;;;18.80;7.78;;;4.70;99.90;;;;;;4953221;29;20028;-85
2022/01/29 08:01:21;;;;;;;21.08;9.40;;;4.70;99.90;;;;;;4915589;29;20035;-84
2022/01/29 08:03:48;;;;;;;22.38;8.25;;;4.80;99.90;;;;;;4954548;29;20034;-83
2022/01/29 08:06:16;;;;;;;13.95;7.82;;;4.80;99.90;;;;;;4956007;28;20078;-84
2022/01/29 08:08:42;;;;;;;16.65;7.93;;;4.80;99.90;;;;;;4962626;29;20035;-84
2022/01/29 08:11:09;;;;;;;16.45;7.78;;;5.00;99.90;;;;;;4961015;29;20642;-84
2022/01/29 08:13:35;;;;;;;21.20;8.35;;;5.00;99.90;;;;;;4962296;29;20515;-82
2022/01/29 08:16:03;;;;;;;20.45;8.55;;;5.00;99.90;;;;;;4962246;29;20028;-84
2022/01/29 08:18:29;;;;;;;16.50;8.48;;;5.00;99.90;;;;;;4954193;29;20027;-84
2022/01/29 08:20:55;;;;;;;17.25;7.57;;;5.10;99.90;;;;;;4957902;29;20111;-83
2022/01/29 08:23:21;;;;;;;17.55;8.02;;;5.00;99.90;;;;;;4960311;29;20023;-84
2022/01/29 08:25:48;;;;;;;14.32;7.38;;;5.10;99.90;;;;;;4952587;29;20032;-84
2022/01/29 08:28:14;;;;;;;19.10;7.53;;;5.10;99.90;;;;;;4956404;29;20083;-85
2022/01/29 08:30:40;;;;;;;16.13;7.72;;;5.20;99.90;;;;;;4942604;29;20528;-84
2022/01/29 08:33:06;;;;;;;24.95;7.85;;;5.30;99.90;;;;;;4918824;29;20042;-84
2022/01/29 08:35:33;;;;;;;16.73;6.93;;;5.30;99.90;;;;;;4972801;29;20078;-86
2022/01/29 08:37:59;;;;;;;17.08;7.03;;;5.40;99.90;;;;;;4956238;29;20032;-82
2022/01/29 08:40:27;;;;;;;16.10;7.63;;;5.50;99.90;;;;;;4962451;29;20031;-84
2022/01/29 08:42:54;;;;;;;16.00;6.60;;;5.40;99.90;;;;;;4963239;29;20020;-85
2022/01/29 08:45:20;;;;;;;11.95;6.28;;;5.40;99.90;;;;;;4966987;29;20031;-85
2022/01/29 08:47:48;;;;;;;19.45;6.13;;;5.60;99.90;;;;;;4963168;29;20114;-84
2022/01/29 08:50:14;;;;;;;17.33;6.15;;;5.70;99.90;;;;;;4963324;29;20098;-85
2022/01/29 08:52:41;;;;;;;12.35;6.07;;;5.80;99.90;;;;;;4963573;29;20047;-85
2022/01/29 08:55:09;;;;;;;17.60;6.20;;;6.00;99.90;;;;;;4948134;29;20054;-85
2022/01/29 08:57:35;;;;;;;16.92;6.63;;;5.90;99.90;;;;;;4951023;29;20050;-85
2022/01/29 09:00:06;;;;;;;13.02;6.07;;;6.00;99.90;;;;;;4962911;29;20027;-85
2022/01/29 09:02:32;;;;;;;14.07;6.95;;;5.90;99.90;;;;;;4946628;29;20031;-85
2022/01/29 09:05:01;;;;;;;15.52;6.35;;;6.00;99.90;;;;;;4961036;28;20049;-86
2022/01/29 09:07:28;;;;;;;12.80;5.75;;;6.10;99.90;;;;;;4943151;29;20449;-86
2022/01/29 09:09:54;;;;;;;13.85;5.93;;;6.10;99.90;;;;;;4944395;29;20039;-86
2022/01/29 09:12:21;;;;;;;13.70;5.88;;;6.10;99.90;;;;;;4947883;29;20027;-87
2022/01/29 09:14:47;;;;;;;30.67;11.95;;;6.10;99.90;;;;;;4963410;29;20051;-88
2022/01/29 09:17:13;;;;;;;15.98;6.00;;;6.20;99.90;;;;;;4967021;29;20038;-88
2022/01/29 09:19:39;;;;;;;13.48;6.22;;;6.10;99.90;;;;;;4945625;29;20104;-83
2022/01/29 09:22:04;;;;;;;11.73;5.50;;;6.00;99.90;;;;;;4969180;29;20096;-84
2022/01/29 09:24:30;;;;;;;18.42;5.95;;;5.90;99.90;;;;;;4930294;29;20027;-86
2022/01/29 09:26:56;;;;;;;12.88;5.97;;;5.90;99.90;;;;;;4961026;28;20503;-86
2022/01/29 09:29:22;;;;;;;13.23;5.28;;;5.80;99.90;;;;;;4966380;29;20034;-85
2022/01/29 09:31:48;;;;;;;11.75;5.78;;;5.80;99.90;;;;;;4931068;29;20020;-83
2022/01/29 09:34:14;;;;;;;10.48;4.72;;;5.70;99.90;;;;;;4966705;29;20030;-84
2022/01/29 09:36:39;;;;;;;13.85;5.82;;;5.60;99.90;;;;;;4968905;28;20031;-85
2022/01/29 09:39:05;;;;;;;10.82;4.85;;;5.60;99.90;;;;;;4975078;29;20058;-83
2022/01/29 09:41:32;;;;;;;9.68;5.35;;;5.60;99.90;;;;;;4959642;29;20055;-81
2022/01/29 09:43:58;;;;;;;19.92;5.03;;;5.70;99.90;;;;;;4939014;29;20028;-82
2022/01/29 09:46:28;;;;;;;12.38;5.13;;;5.80;99.90;;;;;;4954785;29;20028;-83
2022/01/29 09:48:54;;;;;;;10.68;5.07;;;6.00;99.90;;;;;;4939811;29;20042;-83
2022/01/29 09:51:21;;;;;;;15.05;6.07;;;6.10;99.90;;;;;;4957843;28;20031;-84
2022/01/29 09:53:47;;;;;;;15.48;4.88;;;6.10;99.90;;;;;;4976504;28;20023;-84
2022/01/29 09:56:14;;;;;;;10.52;5.35;;;6.30;99.90;;;;;;4961977;28;20053;-81
2022/01/29 09:58:42;;;;;;;11.18;4.35;;;6.50;99.90;;;;;;4978669;28;20015;-81
2022/01/29 10:01:09;;;;;;;12.68;4.57;;;6.50;99.90;;;;;;4978723;28;20018;-81
2022/01/29 10:03:35;;;;;;;13.48;4.28;;;6.50;99.90;;;;;;4976607;28;20144;-82
2022/01/29 10:06:03;;;;;;;11.23;4.15;;;6.70;99.90;;;;;;4972203;29;20043;-84
2022/01/29 10:08:30;;;;;;;8.40;3.83;;;6.80;99.90;;;;;;4975891;28;20098;-83
2022/01/29 10:10:59;;;;;;;10.82;3.70;;;6.90;99.90;;;;;;4953761;29;20217;-84
2022/01/29 10:13:32;;;;;;;9.30;4.15;;;6.90;99.90;;;;;;4950330;29;20031;-83
2022/01/29 10:16:19;;;;;;;9.50;4.18;;;6.80;99.90;;;;;;4943092;29;20055;-84
2022/01/29 10:18:57;;;;;;;12.65;3.92;;;6.80;99.90;;;;;;4931296;29;20036;-84
2022/01/29 10:21:25;;;;;;;11.68;3.88;;;6.70;99.90;;;;;;4952926;29;20019;-85
2022/01/29 10:24:07;;;;;;;8.63;3.25;;;6.80;99.90;;;;;;4944832;29;20051;-84
2022/01/29 10:26:38;;;;;;;8.35;3.40;;;7.00;99.90;;;;;;4945447;29;20024;-85
2022/01/29 10:29:07;;;;;;;9.18;4.13;;;7.30;99.90;;;;;;4950538;29;20036;-86
2022/01/29 10:31:41;;;;;;;6.53;2.92;;;7.70;99.90;;;;;;4968111;29;20031;-86
2022/01/29 10:34:24;;;;;;;9.23;3.47;;;7.90;99.90;;;;;;4963948;29;20031;-84
2022/01/29 10:37:19;;;;;;;6.82;3.00;;;8.10;99.90;;;;;;4950898;29;20066;-84
2022/01/29 10:39:56;;;;;;;7.43;3.10;;;8.30;99.40;;;;;;4927447;29;20031;-85
2022/01/29 10:42:43;;;;;;;7.93;2.92;;;8.50;99.10;;;;;;4944845;29;20042;-84
2022/01/29 10:45:10;;;;;;;6.93;2.65;;;8.60;98.50;;;;;;4962863;29;20035;-85
2022/01/29 10:47:55;;;;;;;6.75;3.25;;;8.50;98.50;;;;;;4962751;28;20039;-87
2022/01/29 10:50:21;;;;;;;7.95;2.75;;;8.50;98.70;;;;;;4963675;29;20032;-86
2022/01/29 10:52:48;;;;;;;9.90;3.20;;;8.20;98.80;;;;;;4963746;29;20027;-84
2022/01/29 10:55:14;;;;;;;12.75;4.38;;;8.30;99.10;;;;;;4965370;29;20039;-85
2022/01/29 10:57:43;;;;;;;8.02;2.78;;;8.90;98.30;;;;;;4945768;29;20433;-84
2022/01/29 11:00:17;;;;;;;9.73;4.20;;;9.40;97.60;;;;;;4950045;29;20157;-84
2022/01/29 11:02:44;;;;;;;6.57;3.63;;;9.90;96.80;;;;;;4951373;29;20032;-83
2022/01/29 11:05:11;;;;;;;10.45;4.15;;;9.60;97.00;;;;;;4956438;28;20083;-83
2022/01/29 11:07:37;;;;;;;12.15;3.92;;;9.80;96.80;;;;;;4958301;28;20051;-82
2022/01/29 11:10:06;;;;;;;4.97;3.72;;;10.30;96.30;;;;;;4949788;28;20129;-82
2022/01/29 11:12:33;;;;;;;6.28;3.30;;;10.40;96.20;;;;;;4963711;28;20045;-83
2022/01/29 11:15:02;;;;;;;8.95;3.50;;;10.70;95.40;;;;;;4956605;28;20067;-84
2022/01/29 11:17:29;;;;;;;9.82;4.03;;;10.90;95.20;;;;;;4957590;28;20035;-84
2022/01/29 11:19:56;;;;;;;6.60;3.10;;;11.30;94.70;;;;;;4941306;29;20035;-82
2022/01/29 11:22:29;;;;;;;5.88;3.28;;;11.50;94.20;;;;;;4920090;29;20111;-82
2022/01/29 11:24:59;;;;;;;6.93;3.67;;;11.60;93.70;;;;;;4946615;29;20034;-85
2022/01/29 11:27:26;;;;;;;7.82;3.10;;;11.40;93.70;;;;;;4963770;28;20031;-85
2022/01/29 11:29:57;;;;;;;7.93;3.45;;;10.80;93.90;;;;;;4964816;29;20027;-82
2022/01/29 11:32:24;;;;;;;7.03;2.95;;;10.30;94.90;;;;;;4950352;29;20055;-86
2022/01/29 11:35:05;;;;;;;7.57;3.45;;;10.00;95.60;;;;;;4978895;29;20142;-82
2022/01/29 11:37:45;;;;;;;10.32;3.50;;;9.30;97.00;;;;;;4968452;28;20020;-82
2022/01/29 11:40:34;;;;;;;7.43;3.30;;;9.20;97.70;;;;;;4961467;28;20111;-82
2022/01/29 11:43:19;;;;;;;9.95;3.50;;;9.00;98.90;;;;;;4961501;28;20043;-81
2022/01/29 11:45:55;;;;;;;6.65;3.08;;;8.80;99.90;;;;;;4961131;28;20043;-80
2022/01/29 11:49:09;;;;;;;9.85;3.50;;;8.60;99.90;;;;;;4975014;28;20059;-82
2022/01/29 11:51:12;;;;;;;9.82;3.20;;;7.90;99.90;;;;;;4963832;28;20082;-80
2022/01/29 11:53:44;;;;;;;8.20;3.55;;;7.70;99.90;;;;;;4944744;29;20051;-81
2022/01/29 11:56:40;;;;;;;9.95;3.75;;;7.80;99.90;;;;;;4956134;28;20044;-84
2022/01/29 11:59:23;;;;;;;11.00;3.83;;;7.90;99.90;;;;;;4944813;29;20031;-82
2022/01/29 12:01:52;;;;;;;5.90;3.28;;;7.70;99.90;;;;;;4959843;29;20020;-82
2022/01/29 12:04:20;;;;;;;6.43;3.47;;;7.50;99.90;;;;;;4943448;29;20116;-84
2022/01/29 12:07:11;;;;;;;7.60;4.05;;;7.30;99.90;;;;;;4950629;29;20035;-84
2022/01/29 12:09:52;;;;;;;10.23;4.10;;;7.10;99.90;;;;;;4952000;29;20051;-84
2022/01/29 12:12:27;;;;;;;10.63;4.28;;;7.10;99.90;;;;;;4961313;29;20019;-82
2022/01/29 12:15:11;;;;;;;8.45;3.95;;;7.00;99.90;;;;;;4948182;29;20040;-83
2022/01/29 12:17:43;;;;;;;9.10;4.22;;;6.90;99.90;;;;;;4977223;28;20042;-81
2022/01/29 12:20:15;;;;;;;11.07;4.72;;;6.70;99.90;;;;;;4960922;28;20087;-79
2022/01/29 12:22:42;;;;;;;6.97;3.92;;;6.70;99.90;;;;;;4960373;28;20051;-80
2022/01/29 12:25:18;;;;;;;19.15;7.38;;;6.60;99.90;;;;;;4961544;28;20035;-82
2022/01/29 12:27:56;;;;;;;11.02;4.90;;;6.50;99.90;;;;;;4938096;29;20111;-83
2022/01/29 12:30:26;;;;;;;9.85;3.75;;;6.30;99.90;;;;;;4961479;28;20023;-82
2022/01/29 12:32:55;;;;;;;9.77;3.78;;;6.10;99.90;;;;;;4979874;28;20030;-81
2022/01/29 12:35:21;;;;;;;9.95;4.15;;;6.20;99.90;;;;;;4980343;28;20108;-81
2022/01/29 12:37:54;;;;;;;10.90;3.97;;;6.20;99.90;;;;;;4980173;28;20031;-81
2022/01/29 12:40:22;;;;;;;8.40;4.22;;;6.30;99.90;;;;;;4979902;28;20095;-81
2022/01/29 12:42:59;;;;;;;8.00;3.50;;;6.30;99.90;;;;;;4952510;28;20118;-83
2022/01/29 12:45:32;;;;;;;6.45;3.65;;;6.30;99.90;;;;;;4936745;29;20046;-82
2022/01/29 12:48:09;;;;;;;5.38;2.90;;;5.90;99.90;;;;;;4945154;29;20160;-82
2022/01/29 12:50:36;;;;;;;13.10;3.55;;;5.90;99.90;;;;;;4933062;29;20070;-86
2022/01/29 12:53:20;;;;;;;11.88;3.75;;;5.90;99.90;;;;;;4964806;29;20111;-82
2022/01/29 12:56:03;;;;;;;7.30;2.93;;;6.00;99.90;;;;;;4927924;29;20064;-84
2022/01/29 12:58:35;;;;;;;5.90;3.03;;;6.10;99.90;;;;;;4952420;29;20110;-85
2022/01/29 13:01:05;;;;;;;6.35;3.38;;;6.00;99.90;;;;;;4961960;29;20035;-83
2022/01/29 13:03:31;;;;;;;10.18;4.15;;;5.70;99.90;;;;;;4973326;28;20027;-81
2022/01/29 13:06:04;;;;;;;6.50;2.95;;;5.70;99.90;;;;;;4959242;28;20027;-84